createdAt,value
2022-11-29T00:02:20.012Z,5.60
2022-11-29T00:04:46.747Z,5.70
2022-11-29T00:07:13.370Z,5.70
2022-11-29T00:09:40.077Z,5.80
2022-11-29T00:12:12.807Z,5.90
2022-11-29T00:14:39.446Z,6.00
2022-11-29T00:17:06.128Z,6.10
2022-11-29T00:19:32.777Z,6.30
2022-11-29T00:21:59.455Z,6.40
2022-11-29T00:24:26.034Z,6.50
2022-11-29T00:26:52.596Z,6.60
2022-11-29T00:29:19.284Z,6.60
2022-11-29T00:31:45.897Z,6.70
2022-11-29T00:34:12.593Z,6.80
2022-11-29T00:36:39.339Z,6.80
2022-11-29T00:39:06.061Z,6.80
2022-11-29T00:41:32.736Z,6.90
2022-11-29T00:43:59.405Z,6.90
2022-11-29T00:46:26.105Z,6.90
2022-11-29T00:48:52.722Z,7.00
2022-11-29T00:51:19.325Z,7.00
2022-11-29T00:53:45.937Z,7.00
2022-11-29T00:56:12.586Z,7.00
2022-11-29T00:58:39.173Z,7.10
2022-11-29T01:01:05.828Z,7.10
2022-11-29T01:03:32.503Z,7.10
2022-11-29T01:05:59.123Z,7.10
2022-11-29T01:08:25.702Z,7.10
2022-11-29T01:10:52.261Z,7.00
2022-11-29T01:13:18.853Z,7.00
2022-11-29T01:15:45.399Z,7.00
2022-11-29T01:18:12.003Z,7.00
2022-11-29T01:20:38.633Z,7.00
2022-11-29T01:23:05.255Z,7.00
2022-11-29T01:25:32.246Z,7.00
2022-11-29T01:27:58.899Z,7.00
2022-11-29T01:30:25.844Z,7.00
2022-11-29T01:32:52.467Z,7.00
2022-11-29T01:35:19.068Z,7.00
2022-11-29T01:37:45.652Z,7.00
2022-11-29T01:40:12.283Z,7.00
2022-11-29T01:42:38.875Z,7.00
2022-11-29T01:45:05.449Z,7.10
2022-11-29T01:47:32.032Z,7.00
2022-11-29T01:49:58.717Z,7.00
2022-11-29T01:52:25.299Z,7.00
2022-11-29T01:54:51.947Z,7.10
2022-11-29T01:57:18.598Z,7.10
2022-11-29T01:59:45.244Z,7.10
2022-11-29T02:02:11.956Z,7.10
2022-11-29T02:04:38.578Z,7.10
2022-11-29T02:07:05.182Z,7.10
2022-11-29T02:09:31.779Z,7.10
2022-11-29T02:11:58.376Z,7.10
2022-11-29T02:14:24.945Z,7.10
2022-11-29T02:16:56.414Z,7.10
2022-11-29T02:19:23.304Z,7.10
2022-11-29T02:21:49.900Z,7.20
2022-11-29T02:24:16.558Z,7.20
2022-11-29T02:26:43.193Z,7.20
2022-11-29T02:29:09.871Z,7.20
2022-11-29T02:31:36.699Z,7.30
2022-11-29T02:34:03.264Z,7.20
2022-11-29T02:36:29.870Z,7.20
2022-11-29T02:38:56.462Z,7.20
2022-11-29T02:41:23.032Z,7.20
2022-11-29T02:43:49.629Z,7.20
2022-11-29T02:46:16.298Z,7.20
2022-11-29T02:48:42.913Z,7.20
2022-11-29T02:51:09.581Z,7.20
2022-11-29T02:53:36.207Z,7.20
2022-11-29T02:56:02.852Z,7.30
2022-11-29T02:58:29.463Z,7.20
2022-11-29T03:00:56.045Z,7.20
2022-11-29T03:03:22.643Z,7.20
2022-11-29T03:05:49.244Z,7.20
2022-11-29T03:08:15.884Z,7.20
2022-11-29T03:10:42.526Z,7.20
2022-11-29T03:13:09.112Z,7.20
2022-11-29T03:15:35.744Z,7.30
2022-11-29T03:18:02.517Z,7.20
2022-11-29T03:20:29.139Z,7.30
2022-11-29T03:22:55.740Z,7.30
2022-11-29T03:25:22.303Z,7.30
2022-11-29T03:27:48.907Z,7.30
2022-11-29T03:30:15.482Z,7.30
2022-11-29T03:32:42.114Z,7.30
2022-11-29T03:35:08.712Z,7.30
2022-11-29T03:37:35.308Z,7.30
2022-11-29T03:40:01.854Z,7.30
2022-11-29T03:42:28.495Z,7.30
2022-11-29T03:44:55.090Z,7.30
2022-11-29T03:47:21.693Z,7.20
2022-11-29T03:49:48.270Z,7.30
2022-11-29T03:52:14.835Z,7.20
2022-11-29T03:54:41.571Z,7.20
2022-11-29T03:57:08.195Z,7.20
2022-11-29T03:59:34.805Z,7.20
2022-11-29T04:02:01.466Z,7.20
2022-11-29T04:04:28.117Z,7.20
2022-11-29T04:06:54.684Z,7.10
2022-11-29T04:09:21.288Z,7.20
2022-11-29T04:11:58.875Z,7.20
2022-11-29T04:14:25.507Z,7.20
2022-11-29T04:16:52.110Z,7.20
2022-11-29T04:19:18.672Z,7.20
2022-11-29T04:21:45.229Z,7.20
2022-11-29T04:24:11.842Z,7.20
2022-11-29T04:26:38.407Z,7.20
2022-11-29T04:29:04.990Z,7.20
2022-11-29T04:31:31.600Z,7.20
2022-11-29T04:33:58.314Z,7.20
2022-11-29T04:36:24.957Z,7.20
2022-11-29T04:38:51.511Z,7.20
2022-11-29T04:41:18.081Z,7.20
2022-11-29T04:43:44.703Z,7.20
2022-11-29T04:46:11.336Z,7.20
2022-11-29T04:48:37.924Z,7.20
2022-11-29T04:51:04.529Z,7.20
2022-11-29T04:53:31.159Z,7.20
2022-11-29T04:55:57.744Z,7.20
2022-11-29T04:58:24.611Z,7.20
2022-11-29T05:00:51.269Z,7.20
2022-11-29T05:03:17.862Z,7.20
2022-11-29T05:05:44.469Z,7.10
2022-11-29T05:08:11.056Z,7.10
2022-11-29T05:10:37.643Z,7.10
2022-11-29T05:13:04.262Z,7.10
2022-11-29T05:15:30.852Z,7.10
2022-11-29T05:17:57.669Z,7.10
2022-11-29T05:20:24.344Z,7.10
2022-11-29T05:22:50.946Z,7.00
2022-11-29T05:25:17.553Z,7.10
2022-11-29T05:27:44.191Z,7.00
2022-11-29T05:30:11.168Z,7.00
2022-11-29T05:32:37.729Z,7.00
2022-11-29T05:35:04.314Z,7.00
2022-11-29T05:37:31.023Z,7.00
2022-11-29T05:39:57.646Z,7.00
2022-11-29T05:42:24.287Z,7.00
2022-11-29T05:44:51.042Z,7.00
2022-11-29T05:47:17.618Z,7.00
2022-11-29T05:49:44.229Z,7.00
2022-11-29T05:52:10.901Z,7.00
2022-11-29T05:54:37.529Z,7.00
2022-11-29T05:57:04.168Z,7.00
2022-11-29T05:59:30.850Z,7.00
2022-11-29T06:01:57.575Z,7.00
2022-11-29T06:04:24.286Z,7.00
2022-11-29T06:06:50.940Z,6.90
2022-11-29T06:09:19.048Z,6.90
2022-11-29T06:11:45.879Z,6.90
2022-11-29T06:14:13.655Z,6.90
2022-11-29T06:16:40.306Z,6.90
2022-11-29T06:19:06.939Z,6.90
2022-11-29T06:21:33.576Z,6.80
2022-11-29T06:24:00.213Z,6.90
2022-11-29T06:26:29.221Z,6.90
2022-11-29T06:28:55.899Z,6.80
2022-11-29T06:31:22.577Z,6.80
2022-11-29T06:33:49.279Z,6.80
2022-11-29T06:36:16.215Z,6.90
2022-11-29T06:38:42.954Z,6.90
2022-11-29T06:41:09.632Z,6.90
2022-11-29T06:43:36.265Z,6.80
2022-11-29T06:46:02.998Z,6.90
2022-11-29T06:48:29.723Z,6.90
2022-11-29T06:50:56.339Z,6.80
2022-11-29T06:53:23.256Z,6.80
2022-11-29T06:55:49.906Z,6.80
2022-11-29T06:58:16.584Z,6.80
2022-11-29T07:00:43.286Z,6.80
2022-11-29T07:03:11.313Z,6.80
2022-11-29T07:05:37.929Z,6.80
2022-11-29T07:08:04.571Z,6.80
2022-11-29T07:10:31.303Z,6.80
2022-11-29T07:12:57.989Z,6.80
2022-11-29T07:15:24.581Z,6.80
2022-11-29T07:17:51.507Z,6.90
2022-11-29T07:20:18.217Z,6.90
2022-11-29T07:22:44.887Z,6.90
2022-11-29T07:25:11.582Z,6.90
2022-11-29T07:27:38.266Z,6.70
2022-11-29T07:30:05.319Z,6.70
2022-11-29T07:32:33.517Z,6.70
2022-11-29T07:35:00.579Z,6.60
2022-11-29T07:37:27.471Z,6.70
2022-11-29T07:39:54.372Z,6.80
2022-11-29T07:42:21.002Z,6.80
2022-11-29T07:44:48.200Z,6.70
2022-11-29T07:47:15.096Z,6.80
2022-11-29T07:49:42.205Z,6.80
2022-11-29T07:52:09.313Z,6.80
2022-11-29T07:54:35.986Z,6.70
2022-11-29T07:57:02.709Z,6.80
2022-11-29T07:59:29.431Z,6.80
2022-11-29T08:01:56.200Z,6.80
2022-11-29T08:04:24.669Z,6.80
2022-11-29T08:06:51.381Z,6.70
2022-11-29T08:09:18.100Z,6.80
2022-11-29T08:11:44.997Z,6.80
2022-11-29T08:14:11.682Z,6.90
2022-11-29T08:16:38.352Z,6.80
2022-11-29T08:19:05.139Z,6.80
2022-11-29T08:21:31.881Z,6.80
2022-11-29T08:23:58.552Z,6.80
2022-11-29T08:26:29.860Z,6.80
2022-11-29T08:28:58.162Z,6.80
2022-11-29T08:31:24.858Z,6.80
2022-11-29T08:33:51.546Z,6.80
2022-11-29T08:36:18.431Z,6.70
2022-11-29T08:38:45.188Z,6.80
2022-11-29T08:41:11.855Z,6.80
2022-11-29T08:43:38.478Z,6.70
2022-11-29T08:46:05.163Z,6.70
2022-11-29T08:48:31.819Z,6.70
2022-11-29T08:50:58.537Z,6.70
2022-11-29T08:53:43.859Z,6.80
2022-11-29T08:56:41.769Z,6.80
2022-11-29T08:58:57.226Z,6.90
2022-11-29T09:01:23.926Z,6.80
2022-11-29T09:03:59.911Z,6.80
2022-11-29T09:06:26.548Z,6.80
2022-11-29T09:08:53.190Z,6.80
2022-11-29T09:11:19.939Z,6.90
2022-11-29T09:13:46.601Z,6.90
2022-11-29T09:16:13.350Z,6.90
2022-11-29T09:18:39.995Z,6.80
2022-11-29T09:21:06.880Z,6.80
2022-11-29T09:23:33.542Z,6.80
2022-11-29T09:26:00.175Z,6.70
2022-11-29T09:28:26.837Z,6.60
2022-11-29T09:30:53.458Z,6.70
2022-11-29T09:33:20.042Z,6.70
2022-11-29T09:35:46.707Z,6.70
2022-11-29T09:38:13.371Z,6.70
2022-11-29T09:40:40.338Z,6.70
2022-11-29T09:43:07.089Z,6.80
2022-11-29T09:45:33.732Z,6.80
2022-11-29T09:48:00.365Z,6.70
2022-11-29T09:50:26.953Z,6.80
2022-11-29T09:52:53.625Z,6.80
2022-11-29T09:55:20.247Z,6.80
2022-11-29T09:57:46.858Z,6.80
2022-11-29T10:00:13.449Z,6.90
2022-11-29T10:02:40.175Z,6.90
2022-11-29T10:05:07.342Z,6.90
2022-11-29T10:07:33.988Z,6.90
2022-11-29T10:10:01.680Z,6.90
2022-11-29T10:12:28.305Z,7.00
2022-11-29T10:14:57.864Z,7.00
2022-11-29T10:17:24.513Z,6.90
2022-11-29T10:19:51.458Z,7.00
2022-11-29T10:22:18.126Z,6.90
2022-11-29T10:24:44.967Z,6.90
2022-11-29T10:27:11.914Z,6.90
2022-11-29T10:29:38.548Z,7.00
2022-11-29T10:32:10.181Z,7.00
2022-11-29T10:34:37.051Z,7.00
2022-11-29T10:37:03.778Z,7.00
2022-11-29T10:39:30.359Z,7.00
2022-11-29T10:41:57.004Z,7.00
2022-11-29T10:44:23.691Z,7.00
2022-11-29T10:46:50.275Z,7.00
2022-11-29T10:49:16.913Z,7.00
2022-11-29T10:51:43.500Z,6.90
2022-11-29T10:54:10.082Z,7.00
2022-11-29T10:56:37.782Z,7.00
2022-11-29T10:59:06.223Z,7.10
2022-11-29T11:01:32.986Z,7.10
2022-11-29T11:03:59.724Z,7.00
2022-11-29T11:06:26.546Z,7.00
2022-11-29T11:08:53.166Z,7.00
2022-11-29T11:11:19.779Z,7.10
2022-11-29T11:13:48.025Z,7.10
2022-11-29T11:16:14.739Z,7.10
2022-11-29T11:18:41.410Z,7.10
2022-11-29T11:21:08.084Z,7.20
2022-11-29T11:23:37.525Z,7.10
2022-11-29T11:26:07.934Z,7.10
2022-11-29T11:28:34.588Z,7.10
2022-11-29T11:31:01.328Z,7.20
2022-11-29T11:33:28.081Z,7.30
2022-11-29T11:35:54.704Z,7.30
2022-11-29T11:38:21.473Z,7.20
2022-11-29T11:40:48.118Z,7.20
2022-11-29T11:43:14.766Z,7.20
2022-11-29T11:45:41.475Z,7.20
2022-11-29T11:48:08.254Z,7.20
2022-11-29T11:50:34.966Z,7.10
2022-11-29T11:53:01.595Z,7.20
2022-11-29T11:55:28.246Z,7.20
2022-11-29T11:57:57.811Z,7.20
2022-11-29T12:00:47.557Z,7.20
2022-11-29T12:03:11.230Z,7.30
2022-11-29T12:05:38.734Z,7.30
2022-11-29T12:08:08.671Z,7.30
2022-11-29T12:10:35.532Z,7.30
2022-11-29T12:13:02.190Z,7.40
2022-11-29T12:15:28.889Z,7.40
2022-11-29T12:17:55.612Z,7.40
2022-11-29T12:20:22.275Z,7.30
2022-11-29T12:22:49.409Z,7.30
2022-11-29T12:25:16.068Z,7.30
2022-11-29T12:27:42.652Z,7.30
2022-11-29T12:30:09.303Z,7.20
2022-11-29T12:32:35.932Z,7.20
2022-11-29T12:35:02.658Z,7.30
2022-11-29T12:37:29.248Z,7.30
2022-11-29T12:39:57.155Z,7.30
2022-11-29T12:42:23.803Z,7.20
2022-11-29T12:44:50.391Z,7.20
2022-11-29T12:50:05.100Z,7.20
2022-11-29T12:52:31.805Z,7.10
2022-11-29T12:54:58.507Z,7.10
2022-11-29T12:57:25.187Z,7.10
2022-11-29T12:59:51.959Z,7.20
2022-11-29T13:02:18.717Z,7.20
2022-11-29T13:04:45.712Z,7.30
2022-11-29T13:07:12.795Z,7.30
2022-11-29T13:09:39.561Z,7.30
2022-11-29T13:12:06.203Z,7.20
2022-11-29T13:14:48.235Z,7.30
2022-11-29T13:17:14.944Z,7.30
2022-11-29T13:19:41.570Z,7.40
2022-11-29T13:22:08.332Z,7.40
2022-11-29T13:24:39.618Z,7.40
2022-11-29T13:27:09.623Z,7.20
2022-11-29T13:29:36.253Z,7.30
2022-11-29T13:32:02.958Z,7.30
2022-11-29T13:34:29.657Z,7.40
2022-11-29T13:36:56.279Z,7.20
2022-11-29T13:39:22.871Z,7.20
2022-11-29T13:41:49.538Z,7.20
2022-11-29T13:44:17.088Z,7.20
2022-11-29T13:46:43.779Z,7.20
2022-11-29T13:49:10.510Z,7.30
2022-11-29T13:51:37.767Z,7.30
2022-11-29T13:54:04.436Z,7.30
2022-11-29T13:56:39.479Z,7.30
2022-11-29T13:59:06.719Z,7.30
2022-11-29T14:01:33.536Z,7.30
2022-11-29T14:04:00.130Z,7.40
2022-11-29T14:06:26.820Z,7.40
2022-11-29T14:11:40.466Z,7.40
2022-11-29T14:14:07.077Z,7.40
2022-11-29T14:16:36.596Z,7.40
2022-11-29T14:19:03.869Z,7.40
2022-11-29T14:21:30.591Z,7.30
2022-11-29T14:23:57.825Z,7.20
2022-11-29T14:26:28.303Z,7.30
2022-11-29T14:28:55.797Z,7.30
2022-11-29T14:31:22.735Z,7.30
2022-11-29T14:33:49.360Z,7.30
2022-11-29T14:36:19.082Z,7.40
2022-11-29T14:38:45.923Z,7.40
2022-11-29T14:41:12.519Z,7.30
2022-11-29T14:43:41.405Z,7.20
2022-11-29T14:46:08.150Z,7.30
2022-11-29T14:48:34.770Z,7.30
2022-11-29T14:51:01.367Z,7.40
2022-11-29T14:53:27.995Z,7.30
2022-11-29T14:55:54.611Z,7.30
2022-11-29T14:58:21.392Z,7.40
2022-11-29T15:00:48.077Z,7.40
2022-11-29T15:03:14.764Z,7.40
2022-11-29T15:05:41.443Z,7.40
2022-11-29T15:08:08.759Z,7.40
2022-11-29T15:10:35.404Z,7.30
2022-11-29T15:13:02.167Z,7.30
2022-11-29T15:15:28.804Z,7.40
2022-11-29T15:17:55.513Z,7.30
2022-11-29T15:20:22.127Z,7.40
2022-11-29T15:22:48.847Z,7.40
2022-11-29T15:25:15.456Z,7.40
2022-11-29T15:27:42.144Z,7.50
2022-11-29T15:30:08.848Z,7.40
2022-11-29T15:32:35.817Z,7.40
2022-11-29T15:35:02.485Z,7.40
2022-11-29T15:37:29.148Z,7.40
2022-11-29T15:39:55.806Z,7.40
2022-11-29T15:42:22.412Z,7.40
2022-11-29T15:44:49.262Z,7.40
2022-11-29T15:47:16.140Z,7.40
2022-11-29T15:49:42.803Z,7.40
2022-11-29T15:52:13.490Z,7.30
2022-11-29T15:54:44.005Z,7.40
2022-11-29T15:57:10.854Z,7.40
2022-11-29T15:59:37.452Z,7.40
2022-11-29T16:02:04.187Z,7.40
2022-11-29T16:04:30.926Z,7.40
2022-11-29T16:06:57.553Z,7.40
2022-11-29T16:09:24.174Z,7.40
2022-11-29T16:11:50.728Z,7.30
2022-11-29T16:14:17.503Z,7.30
2022-11-29T16:16:44.191Z,7.30
2022-11-29T16:19:10.853Z,7.30
2022-11-29T16:21:37.594Z,7.30
2022-11-29T16:24:04.228Z,7.30
2022-11-29T16:26:33.579Z,7.30
2022-11-29T16:29:00.305Z,7.40
2022-11-29T16:31:26.970Z,7.40
2022-11-29T16:33:53.749Z,7.40
2022-11-29T16:36:20.412Z,7.40
2022-11-29T16:38:47.185Z,7.40
2022-11-29T16:41:13.766Z,7.40
2022-11-29T16:43:40.309Z,7.40
2022-11-29T16:46:06.994Z,7.40
2022-11-29T16:48:38.134Z,7.40
2022-11-29T16:51:04.924Z,7.40
2022-11-29T16:53:31.540Z,7.30
2022-11-29T16:55:58.101Z,7.40
2022-11-29T16:58:24.706Z,7.30
2022-11-29T17:00:51.315Z,7.30
2022-11-29T17:03:18.006Z,7.30
2022-11-29T17:05:45.056Z,7.30
2022-11-29T17:08:11.932Z,7.30
2022-11-29T17:10:38.641Z,7.30
2022-11-29T17:13:05.299Z,7.40
2022-11-29T17:15:31.997Z,7.40
2022-11-29T17:17:58.689Z,7.40
2022-11-29T17:20:25.260Z,7.40
2022-11-29T17:22:51.935Z,7.40
2022-11-29T17:25:18.667Z,7.30
2022-11-29T17:27:45.261Z,7.40
2022-11-29T17:30:11.885Z,7.40
2022-11-29T17:32:38.596Z,7.50
2022-11-29T17:35:05.169Z,7.50
2022-11-29T17:37:31.753Z,7.50
2022-11-29T17:39:58.371Z,7.50
2022-11-29T17:42:25.026Z,7.40
2022-11-29T17:44:51.672Z,7.40
2022-11-29T17:47:18.277Z,7.50
2022-11-29T17:49:46.246Z,7.50
2022-11-29T17:52:13.069Z,7.50
2022-11-29T17:54:39.679Z,7.50
2022-11-29T17:57:07.381Z,7.50
2022-11-29T17:59:34.014Z,7.50
2022-11-29T18:02:02.251Z,7.50
2022-11-29T18:04:28.941Z,7.50
2022-11-29T18:06:55.813Z,7.50
2022-11-29T18:09:22.483Z,7.50
2022-11-29T18:11:50.136Z,7.40
2022-11-29T18:14:17.018Z,7.40
2022-11-29T18:16:45.750Z,7.40
2022-11-29T18:19:12.710Z,7.50
2022-11-29T18:21:39.339Z,7.50
2022-11-29T18:24:05.999Z,7.40
2022-11-29T18:26:32.891Z,7.40
2022-11-29T18:28:59.547Z,7.50
2022-11-29T18:31:28.207Z,7.50
2022-11-29T18:33:54.992Z,7.50
2022-11-29T18:36:21.654Z,7.50
2022-11-29T18:38:48.220Z,7.50
2022-11-29T18:41:14.911Z,7.50
2022-11-29T18:43:41.525Z,7.50
2022-11-29T18:46:08.141Z,7.50
2022-11-29T18:48:34.876Z,7.50
2022-11-29T18:51:01.593Z,7.50
2022-11-29T18:53:28.228Z,7.40
2022-11-29T18:55:54.853Z,7.50
2022-11-29T18:58:21.456Z,7.40
2022-11-29T19:00:48.288Z,7.40
2022-11-29T19:03:14.898Z,7.40
2022-11-29T19:05:41.535Z,7.40
2022-11-29T19:08:08.112Z,7.40
2022-11-29T19:10:34.857Z,7.50
2022-11-29T19:13:01.486Z,7.50
2022-11-29T19:15:28.071Z,7.40
2022-11-29T19:17:54.791Z,7.50
2022-11-29T19:20:21.460Z,7.50
2022-11-29T19:22:48.204Z,7.50
2022-11-29T19:25:14.920Z,7.50
2022-11-29T19:27:43.701Z,7.50
2022-11-29T19:30:10.328Z,7.50
2022-11-29T19:32:37.470Z,7.50
2022-11-29T19:35:04.095Z,7.50
2022-11-29T19:37:30.839Z,7.40
2022-11-29T19:39:57.533Z,7.50
2022-11-29T19:42:24.308Z,7.40
2022-11-29T19:47:37.584Z,7.40
2022-11-29T19:50:04.206Z,7.40
2022-11-29T19:52:30.870Z,7.50
2022-11-29T19:54:58.193Z,7.50
2022-11-29T19:57:25.008Z,7.50
2022-11-29T19:59:51.584Z,7.40
2022-11-29T20:02:18.275Z,7.50
2022-11-29T20:04:45.870Z,7.50
2022-11-29T20:07:12.505Z,7.40
2022-11-29T20:09:39.160Z,7.40
2022-11-29T20:12:05.782Z,7.40
2022-11-29T20:14:32.433Z,7.40
2022-11-29T20:16:59.132Z,7.40
2022-11-29T20:19:25.749Z,7.40
2022-11-29T20:21:52.467Z,7.50
2022-11-29T20:24:19.635Z,7.40
2022-11-29T20:26:46.341Z,7.40
2022-11-29T20:29:13.611Z,7.50
2022-11-29T20:31:44.373Z,7.40
2022-11-29T20:34:14.544Z,7.40
2022-11-29T20:36:41.207Z,7.40
2022-11-29T20:39:07.823Z,7.40
2022-11-29T20:41:34.447Z,7.40
2022-11-29T20:44:01.101Z,7.40
2022-11-29T20:46:28.807Z,7.40
2022-11-29T20:48:55.528Z,7.40
2022-11-29T20:51:22.196Z,7.40
2022-11-29T20:53:48.842Z,7.40
2022-11-29T20:56:15.475Z,7.40
2022-11-29T20:58:42.194Z,7.40
2022-11-29T21:01:08.867Z,7.40
2022-11-29T21:03:35.564Z,7.40
2022-11-29T21:06:02.338Z,7.40
2022-11-29T21:08:28.946Z,7.40
2022-11-29T21:10:55.594Z,7.50
2022-11-29T21:13:22.245Z,7.50
2022-11-29T21:15:49.036Z,7.50
2022-11-29T21:18:15.748Z,7.50
2022-11-29T21:20:42.399Z,7.50
2022-11-29T21:23:09.354Z,7.50
2022-11-29T21:25:36.013Z,7.50
2022-11-29T21:28:02.725Z,7.50
2022-11-29T21:30:29.365Z,7.50
2022-11-29T21:32:56.032Z,7.50
2022-11-29T21:35:22.750Z,7.50
2022-11-29T21:37:49.411Z,7.50
2022-11-29T21:40:16.041Z,7.50
2022-11-29T21:42:42.669Z,7.50
2022-11-29T21:45:14.939Z,7.50
2022-11-29T21:47:42.420Z,7.50
2022-11-29T21:50:09.085Z,7.50
2022-11-29T21:52:35.762Z,7.50
2022-11-29T21:55:02.413Z,7.50
2022-11-29T21:57:29.038Z,7.50
2022-11-29T21:59:55.698Z,7.50
2022-11-29T22:02:22.439Z,7.50
2022-11-29T22:04:50.162Z,7.50
2022-11-29T22:07:16.921Z,7.50
2022-11-29T22:09:43.790Z,7.50
2022-11-29T22:12:32.568Z,7.50
2022-11-29T22:14:57.325Z,7.50
2022-11-29T22:17:23.948Z,7.50
2022-11-29T22:19:50.614Z,7.50
2022-11-29T22:22:17.293Z,7.50
2022-11-29T22:24:44.186Z,7.50
2022-11-29T22:27:10.947Z,7.50
2022-11-29T22:29:37.573Z,7.50
2022-11-29T22:32:04.186Z,7.50
2022-11-29T22:34:30.815Z,7.50
2022-11-29T22:36:57.490Z,7.50
2022-11-29T22:39:24.307Z,7.50
2022-11-29T22:41:54.618Z,7.50
2022-11-29T22:44:22.011Z,7.50
2022-11-29T22:46:48.736Z,7.50
2022-11-29T22:49:15.443Z,7.50
2022-11-29T22:51:42.131Z,7.50
2022-11-29T22:54:09.027Z,7.50
2022-11-29T22:56:35.719Z,7.50
2022-11-29T22:59:02.271Z,7.50
2022-11-29T23:01:28.916Z,7.50
2022-11-29T23:03:55.609Z,7.50
2022-11-29T23:06:22.536Z,7.50
2022-11-29T23:08:49.195Z,7.50
2022-11-29T23:11:15.837Z,7.50
2022-11-29T23:13:42.547Z,7.50
2022-11-29T23:16:09.199Z,7.50
2022-11-29T23:18:35.863Z,7.60
2022-11-29T23:21:02.540Z,7.60
2022-11-29T23:23:29.215Z,7.50
2022-11-29T23:25:55.866Z,7.60
2022-11-29T23:28:22.472Z,7.60
2022-11-29T23:30:49.148Z,7.60
2022-11-29T23:33:15.809Z,7.60
2022-11-29T23:35:42.410Z,7.50
2022-11-29T23:38:09.148Z,7.50
2022-11-29T23:40:35.830Z,7.50
2022-11-29T23:43:02.531Z,7.50
2022-11-29T23:45:29.245Z,7.50
2022-11-29T23:47:56.250Z,7.50
2022-11-29T23:50:23.112Z,7.50
2022-11-29T23:52:49.721Z,7.50
2022-11-29T23:55:17.098Z,7.50
2022-11-29T23:57:43.667Z,7.50
